Time;durP1;ratioP1;P1;durP2;ratioP2;P2;SDS_P1;SDS_P2;PMS_P1;PMS_P2;Temp;Humidity;BMP_temperature;BMP_pressure;BME280_temperature;BME280_humidity;BME280_pressure;Samples;Min_cycle;Max_cycle;Signal;HPM_P1;HPM_P2
2021/10/25 00:01:04;;;;;;;10.13;4.07;;;;;;;8.51;69.80;100755.22;5104711;28;20031;-67
2021/10/25 00:03:30;;;;;;;8.68;3.22;;;;;;;8.46;69.95;100757.78;5104483;28;20027;-68
2021/10/25 00:05:55;;;;;;;12.88;3.72;;;;;;;8.42;70.00;100751.72;5104540;28;20055;-68
2021/10/25 00:08:21;;;;;;;8.02;3.15;;;;;;;8.48;69.87;100755.19;5104258;28;20016;-68
2021/10/25 00:10:46;;;;;;;14.20;3.88;;;;;;;8.49;69.85;100749.16;5104343;28;20055;-68
2021/10/25 00:13:12;;;;;;;9.70;3.67;;;;;;;8.50;69.71;100746.56;5104298;28;20032;-67
2021/10/25 00:15:38;;;;;;;13.80;3.38;;;;;;;8.51;69.85;100745.75;5104580;28;20020;-69
2021/10/25 00:18:04;;;;;;;10.23;3.70;;;;;;;8.49;69.47;100739.69;5104570;28;20031;-68
2021/10/25 00:20:30;;;;;;;12.60;4.60;;;;;;;8.55;69.78;100744.03;5104694;28;20026;-66
2021/10/25 00:22:56;;;;;;;7.95;3.50;;;;;;;8.52;69.58;100741.41;5085344;28;20052;-67
2021/10/25 00:25:22;;;;;;;13.25;3.60;;;;;;;8.46;69.79;100736.19;5103534;28;20598;-67
2021/10/25 00:27:47;;;;;;;11.93;3.60;;;;;;;8.47;69.77;100736.22;5103261;28;20035;-67
2021/10/25 00:30:13;;;;;;;15.00;3.63;;;;;;;8.42;69.63;100733.59;5103145;28;20016;-70
2021/10/25 00:32:38;;;;;;;13.48;3.40;;;;;;;8.42;69.75;100733.59;5102958;28;20020;-68
2021/10/25 00:35:06;;;;;;;11.18;3.83;;;;;;;8.42;69.93;100725.84;5103241;28;20024;-67
2021/10/25 00:37:31;;;;;;;10.15;3.85;;;;;;;8.43;69.75;100721.53;5102949;28;20039;-68
2021/10/25 00:39:57;;;;;;;12.32;4.35;;;;;;;8.35;70.09;100708.56;5102893;28;20027;-68
2021/10/25 00:42:22;;;;;;;12.05;3.83;;;;;;;8.45;69.87;100717.22;5084583;28;20217;-67
2021/10/25 00:44:48;;;;;;;10.07;4.22;;;;;;;8.45;69.98;100716.38;5103326;28;20020;-66
2021/10/25 00:47:13;;;;;;;14.18;5.13;;;;;;;8.46;69.65;100715.50;5103104;28;20060;-67
2021/10/25 00:49:39;;;;;;;5.63;3.80;;;;;;;8.40;69.93;100714.59;5103277;28;20020;-67
2021/10/25 00:52:04;;;;;;;9.50;4.05;;;;;;;8.39;70.17;100709.41;5103187;28;20024;-67
2021/10/25 00:54:33;;;;;;;18.10;4.78;;;;;;;8.42;70.15;100702.56;5084778;28;20028;-67
2021/10/25 00:56:59;;;;;;;15.80;4.28;;;;;;;8.49;70.12;100708.63;5102886;28;20024;-67
2021/10/25 00:59:24;;;;;;;12.77;4.88;;;;;;;8.58;70.04;100704.41;5103115;28;20103;-66
2021/10/25 01:01:50;;;;;;;11.10;4.00;;;;;;;8.55;69.75;100688.00;5102814;28;20077;-67
2021/10/25 01:04:15;;;;;;;7.88;4.22;;;;;;;8.69;69.81;100702.69;5102682;28;20026;-67
2021/10/25 01:06:42;;;;;;;9.30;3.80;;;;;;;8.70;69.79;100693.22;5102738;28;20031;-67
2021/10/25 01:09:08;;;;;;;9.80;3.67;;;;;;;8.76;69.46;100695.81;5102438;28;20154;-68
2021/10/25 01:11:34;;;;;;;7.03;3.33;;;;;;;8.80;69.38;100692.41;5101651;28;20080;-68
2021/10/25 01:14:01;;;;;;;9.13;3.83;;;;;;;8.84;69.21;100685.50;5102773;28;20025;-68
2021/10/25 01:16:27;;;;;;;11.48;3.70;;;;;;;8.87;68.85;100676.03;5102794;28;20047;-68
2021/10/25 01:18:56;;;;;;;6.05;3.60;;;;;;;8.91;68.48;100680.34;5102586;28;20557;-67
2021/10/25 01:21:21;;;;;;;9.48;3.67;;;;;;;8.90;68.00;100662.22;5102590;28;20460;-67
2021/10/25 01:23:47;;;;;;;5.63;2.40;;;;;;;8.99;67.70;100671.75;5063700;28;1098138;-68
2021/10/25 01:26:14;;;;;;;9.25;3.67;;;;;;;9.06;67.78;100673.47;5103379;28;20039;-67
2021/10/25 01:28:40;;;;;;;12.70;3.95;;;;;;;9.10;67.45;100670.03;5103434;28;20099;-68
2021/10/25 01:31:06;;;;;;;8.38;3.63;;;;;;;9.15;67.38;100670.06;5103390;28;20024;-68
2021/10/25 01:33:34;;;;;;;9.32;3.95;;;;;;;9.16;67.08;100659.69;5103305;28;20035;-66
2021/10/25 01:36:01;;;;;;;11.35;3.40;;;;;;;9.21;66.94;100662.28;5119031;28;20256;-68
2021/10/25 01:38:26;;;;;;;9.23;4.07;;;;;;;9.27;67.05;100651.06;5102820;28;20024;-69
2021/10/25 01:40:52;;;;;;;9.35;4.05;;;;;;;9.32;66.91;100659.69;5103592;28;20486;-67
2021/10/25 01:43:17;;;;;;;10.35;3.13;;;;;;;9.37;66.76;100652.81;5103018;28;20551;-68
2021/10/25 01:45:45;;;;;;;13.82;3.15;;;;;;;9.38;66.94;100644.16;5103320;28;20038;-68
2021/10/25 01:48:11;;;;;;;8.45;3.50;;;;;;;9.42;66.76;100643.28;5103381;28;20020;-67
2021/10/25 01:50:37;;;;;;;15.85;3.50;;;;;;;9.41;66.62;100638.97;5103213;28;20051;-67
2021/10/25 01:53:04;;;;;;;10.45;3.40;;;;;;;9.40;66.91;100639.84;5102981;28;20268;-68
2021/10/25 01:55:30;;;;;;;8.88;3.30;;;;;;;9.47;67.34;100642.44;5103400;28;20031;-68
2021/10/25 01:57:56;;;;;;;17.40;3.85;;;;;;;9.51;67.75;100623.41;5103226;28;20020;-68
2021/10/25 02:00:22;;;;;;;7.45;3.78;;;;;;;9.55;67.87;100625.16;5103172;28;20514;-69
2021/10/25 02:02:47;;;;;;;12.82;3.72;;;;;;;9.51;68.52;100623.41;5103093;28;20028;-68
2021/10/25 02:05:13;;;;;;;13.18;4.00;;;;;;;9.53;68.77;100626.88;5103253;28;20016;-67
2021/10/25 02:07:38;;;;;;;10.20;3.53;;;;;;;9.54;68.78;100628.59;5102725;28;20499;-68
2021/10/25 02:10:05;;;;;;;12.73;3.85;;;;;;;9.50;68.73;100622.56;5102853;28;20028;-67
2021/10/25 02:12:31;;;;;;;14.40;3.75;;;;;;;9.55;68.79;100614.78;5102848;28;20062;-66
2021/10/25 02:14:56;;;;;;;11.98;3.83;;;;;;;9.51;68.95;100608.75;5102539;28;20495;-67
2021/10/25 02:17:21;;;;;;;11.38;3.35;;;;;;;9.50;69.07;100598.38;5102785;28;20032;-67
2021/10/25 02:19:49;;;;;;;12.70;3.85;;;;;;;9.56;68.95;100600.97;5102877;28;20020;-66
2021/10/25 02:22:14;;;;;;;14.68;3.92;;;;;;;9.53;69.18;100608.75;5104396;28;20024;-66
2021/10/25 02:24:40;;;;;;;9.68;3.85;;;;;;;9.53;69.10;100600.97;5106391;28;20097;-67
2021/10/25 02:27:05;;;;;;;8.15;3.33;;;;;;;9.54;69.39;100602.69;5106474;28;20027;-67
2021/10/25 02:29:35;;;;;;;5.55;2.45;;;;;;;9.61;69.31;100591.47;5106545;28;20020;-68
2021/10/25 02:32:05;;;;;;;13.85;3.97;;;;;;;9.48;69.91;100595.78;5106411;28;20039;-67
2021/10/25 02:34:32;;;;;;;14.07;4.40;;;;;;;9.42;69.80;100594.03;5106086;28;20076;-67
2021/10/25 02:36:57;;;;;;;11.00;4.15;;;;;;;9.40;70.33;100590.63;5106244;28;20468;-67
2021/10/25 02:39:24;;;;;;;12.77;3.90;;;;;;;9.37;70.45;100580.25;5105787;28;20034;-67
2021/10/25 02:41:50;;;;;;;17.42;5.97;;;;;;;9.42;70.28;100586.28;5106331;28;20039;-68
2021/10/25 02:44:15;;;;;;;13.93;4.30;;;;;;;9.48;70.34;100581.97;5106001;28;20020;-66
2021/10/25 02:46:41;;;;;;;8.80;4.50;;;;;;;9.40;70.41;100577.66;5106072;28;20306;-66
2021/10/25 02:49:06;;;;;;;11.65;4.05;;;;;;;9.38;70.46;100579.38;5106277;28;20042;-66
2021/10/25 02:51:32;;;;;;;7.03;3.70;;;;;;;9.37;70.61;100569.88;5105996;28;20024;-67
2021/10/25 02:53:57;;;;;;;10.95;3.42;;;;;;;9.33;70.44;100578.50;5105533;28;20056;-67
2021/10/25 02:56:23;;;;;;;13.82;3.92;;;;;;;9.29;70.76;100569.03;5105914;28;20027;-66
2021/10/25 02:58:48;;;;;;;13.82;4.07;;;;;;;9.28;70.89;100573.34;5105671;28;20032;-67
2021/10/25 03:01:14;;;;;;;8.02;3.00;;;;;;;9.33;70.75;100575.06;5105753;28;20039;-67
2021/10/25 03:03:39;;;;;;;8.85;3.50;;;;;;;9.29;70.86;100563.84;5105590;28;20024;-67
2021/10/25 03:06:04;;;;;;;10.30;4.28;;;;;;;9.27;70.88;100569.03;5105970;28;20027;-68
2021/10/25 03:08:30;;;;;;;11.00;3.70;;;;;;;9.28;71.07;100559.53;5105275;28;20500;-67
2021/10/25 03:10:55;;;;;;;14.07;3.38;;;;;;;9.26;70.92;100559.53;5105773;28;20102;-67
2021/10/25 03:13:21;;;;;;;9.77;3.90;;;;;;;9.35;70.95;100556.06;5105384;28;20020;-67
2021/10/25 03:15:47;;;;;;;10.98;3.60;;;;;;;9.21;71.13;100561.25;5105544;28;20024;-67
2021/10/25 03:18:14;;;;;;;13.80;4.95;;;;;;;9.15;71.52;100553.50;5105132;28;20034;-67
2021/10/25 03:20:39;;;;;;;13.70;4.03;;;;;;;9.10;71.81;100558.69;5105319;28;20023;-67
2021/10/25 03:23:05;;;;;;;10.50;3.35;;;;;;;9.21;71.40;100547.44;5104973;28;20028;-66
2021/10/25 03:25:30;;;;;;;15.57;3.40;;;;;;;9.12;71.73;100554.34;5105019;28;20104;-67
2021/10/25 03:27:56;;;;;;;9.85;3.97;;;;;;;9.12;71.92;100549.16;5105214;28;20076;-67
2021/10/25 03:30:21;;;;;;;9.50;3.80;;;;;;;9.13;71.96;100540.53;5105215;28;20008;-67
2021/10/25 03:32:47;;;;;;;10.35;4.45;;;;;;;9.11;71.88;100541.38;5104468;28;20024;-67
2021/10/25 03:35:12;;;;;;;13.18;4.07;;;;;;;9.12;71.98;100536.19;5104536;28;20112;-67
2021/10/25 03:37:39;;;;;;;15.90;4.90;;;;;;;9.14;72.05;100542.25;5104822;28;20028;-67
2021/10/25 03:40:06;;;;;;;13.70;4.30;;;;;;;9.11;72.27;100542.25;5086796;28;20197;-67
2021/10/25 03:42:42;;;;;;;9.98;4.32;;;;;;;9.11;72.29;100539.66;5105120;28;20051;-68
2021/10/25 03:47:59;;;;;;;11.68;4.18;;;;;;;9.10;72.28;100532.78;5105292;28;20020;-67
2021/10/25 03:50:29;;;;;;;11.80;4.07;;;;;;;9.12;72.04;100532.78;5104908;28;20157;-67
2021/10/25 03:53:12;;;;;;;13.88;4.53;;;;;;;9.16;71.85;100529.31;5104523;28;20024;-67
2021/10/25 03:55:51;;;;;;;9.48;3.90;;;;;;;9.10;71.70;100534.50;5104733;28;20103;-67
2021/10/25 03:58:39;;;;;;;13.55;5.13;;;;;;;9.11;71.64;100531.91;5104625;28;20031;-67
2021/10/25 04:03:54;;;;;;;11.55;4.95;;;;;;;9.06;71.50;100518.06;5104202;28;20024;-66
2021/10/25 04:26:19;;;;;;;19.17;6.25;;;;;;;8.51;71.52;100494.75;4982152;28;20051;-67
2021/10/25 04:28:45;;;;;;;14.00;6.00;;;;;;;8.48;71.39;100494.72;4982183;28;20061;-67
2021/10/25 04:31:10;;;;;;;18.50;6.43;;;;;;;8.34;71.51;100493.84;4982189;28;20030;-65
2021/10/25 04:33:35;;;;;;;13.88;6.65;;;;;;;8.32;71.78;100493.84;4981970;28;20090;-65
2021/10/25 04:36:01;;;;;;;17.05;7.70;;;;;;;8.25;72.02;100494.66;4982048;28;20042;-65
2021/10/25 04:38:26;;;;;;;21.58;7.50;;;;;;;8.23;71.88;100499.84;4980880;28;20063;-65
2021/10/25 04:40:51;;;;;;;18.92;6.40;;;;;;;8.14;71.91;100489.47;4981780;28;20038;-65
2021/10/25 04:43:17;;;;;;;13.63;6.53;;;;;;;8.16;72.30;100498.09;4981861;28;20031;-66
2021/10/25 04:45:44;;;;;;;17.17;7.60;;;;;;;8.15;72.49;100494.66;4981853;28;20039;-65
2021/10/25 04:48:09;;;;;;;16.55;6.50;;;;;;;8.10;72.51;100488.59;5012842;28;20040;-66
2021/10/25 04:50:35;;;;;;;16.73;7.40;;;;;;;8.10;72.64;100504.09;5060724;28;20112;-65
2021/10/25 04:53:00;;;;;;;17.92;7.47;;;;;;;8.08;72.69;100489.44;5043555;28;20192;-65
2021/10/25 04:55:26;;;;;;;14.93;8.52;;;;;;;8.03;72.60;100486.84;5060719;28;20078;-65
2021/10/25 04:57:51;;;;;;;19.33;7.82;;;;;;;8.01;73.11;100492.03;5060806;28;20509;-66
2021/10/25 05:00:17;;;;;;;20.70;7.35;;;;;;;8.07;72.95;100501.50;5088411;28;20392;-65
2021/10/25 05:02:42;;;;;;;16.80;7.13;;;;;;;8.08;73.04;100492.91;5103464;28;20035;-65
2021/10/25 05:05:08;;;;;;;17.60;7.70;;;;;;;8.13;72.93;100495.50;5103874;28;20028;-65
2021/10/25 05:07:34;;;;;;;17.83;7.75;;;;;;;8.16;72.75;100486.00;5103535;28;20081;-65
2021/10/25 05:10:02;;;;;;;16.30;7.45;;;;;;;8.16;72.89;100486.00;5103612;28;20090;-65
2021/10/25 05:12:27;;;;;;;19.15;7.85;;;;;;;8.18;72.79;100491.19;5103508;28;20027;-66
2021/10/25 05:14:53;;;;;;;14.93;7.85;;;;;;;8.16;72.79;100485.19;5103147;28;20016;-66
2021/10/25 05:17:18;;;;;;;17.38;6.57;;;;;;;8.19;73.06;100480.00;5103395;28;20036;-67
2021/10/25 05:19:44;;;;;;;14.40;7.90;;;;;;;8.13;73.01;100480.84;5103127;28;20093;-67
2021/10/25 05:22:10;;;;;;;13.73;7.13;;;;;;;8.06;73.35;100485.16;5102806;28;20020;-67
2021/10/25 05:24:36;;;;;;;18.17;8.48;;;;;;;7.99;73.54;100475.63;5102715;28;20280;-67
2021/10/25 05:27:01;;;;;;;7.57;4.85;;;;;;;8.04;73.44;100473.06;5102950;28;20016;-67
2021/10/25 05:29:26;;;;;;;33.97;9.82;;;;;;;7.86;73.88;100466.13;5103120;28;20039;-66
2021/10/25 05:31:52;;;;;;;15.40;8.07;;;;;;;7.80;74.03;100466.94;5103188;28;20028;-66
2021/10/25 05:34:17;;;;;;;18.55;8.15;;;;;;;7.71;73.93;100462.59;5103112;28;20487;-66
2021/10/25 05:36:42;;;;;;;19.05;8.13;;;;;;;7.68;74.03;100462.59;5103364;28;20373;-66
2021/10/25 05:39:10;;;;;;;18.95;7.80;;;;;;;7.68;74.28;100452.25;5102940;28;20027;-66
2021/10/25 05:41:39;;;;;;;14.77;8.68;;;;;;;7.63;74.33;100457.41;5103266;28;20031;-68
2021/10/25 05:44:04;;;;;;;18.70;8.85;;;;;;;7.65;74.49;100460.84;5102970;28;20024;-66
2021/10/25 05:46:30;;;;;;;21.42;8.05;;;;;;;7.59;74.81;100455.66;5102985;28;20080;-67
2021/10/25 05:48:57;;;;;;;23.55;8.25;;;;;;;7.62;74.71;100462.56;5084738;28;20348;-67
2021/10/25 05:51:23;;;;;;;22.63;10.27;;;;;;;7.63;74.78;100457.41;5102954;28;20024;-66
2021/10/25 05:53:48;;;;;;;18.35;7.65;;;;;;;7.60;74.92;100457.41;5102720;28;20016;-66
2021/10/25 05:56:14;;;;;;;23.23;9.10;;;;;;;7.67;74.87;100463.44;5103214;28;20023;-65
2021/10/25 05:58:40;;;;;;;19.92;8.05;;;;;;;7.63;74.89;100460.00;5106922;28;20012;-66
2021/10/25 06:01:11;;;;;;;17.15;7.45;;;;;;;7.67;75.16;100460.84;5107143;28;20030;-66
2021/10/25 06:03:40;;;;;;;14.70;6.78;;;;;;;7.69;75.16;100451.38;5106989;28;20065;-66
2021/10/25 06:06:06;;;;;;;18.05;7.97;;;;;;;7.68;75.24;100452.25;5122435;28;20028;-67
2021/10/25 06:08:31;;;;;;;13.93;6.75;;;;;;;7.76;75.11;100448.00;5106645;28;20024;-66
2021/10/25 06:10:56;;;;;;;14.65;6.60;;;;;;;7.81;75.19;100445.44;5106690;28;20035;-66
2021/10/25 06:13:29;;;;;;;16.15;7.72;;;;;;;7.76;75.25;100441.94;5106811;28;20038;-66
2021/10/25 06:18:49;;;;;;;19.30;8.38;;;;;;;7.74;75.62;100457.44;5097232;28;20116;-66
2021/10/25 06:21:14;;;;;;;13.57;5.25;;;;;;;7.87;75.31;100453.19;5106352;28;20024;-66
2021/10/25 06:23:40;;;;;;;16.70;7.32;;;;;;;7.85;75.72;100449.72;5105768;28;20027;-65
2021/10/25 06:26:05;;;;;;;16.77;6.95;;;;;;;7.94;75.43;100451.47;5088057;28;20388;-66
2021/10/25 06:28:31;;;;;;;22.70;7.78;;;;;;;8.09;75.06;100453.25;5106405;28;20028;-68
2021/10/25 06:31:01;;;;;;;15.63;7.18;;;;;;;8.00;75.32;100445.47;5106180;28;20047;-66
2021/10/25 06:33:27;;;;;;;18.38;7.95;;;;;;;8.12;74.80;100453.25;5106109;28;20035;-66
2021/10/25 06:36:04;;;;;;;16.92;7.57;;;;;;;8.08;75.05;100453.25;5106135;28;20046;-66
2021/10/25 06:38:32;;;;;;;15.70;6.65;;;;;;;7.99;75.10;100447.19;5105922;28;20024;-66
2021/10/25 06:40:59;;;;;;;20.67;7.82;;;;;;;7.91;75.49;100446.28;5088299;28;20020;-65
2021/10/25 06:43:25;;;;;;;16.40;7.70;;;;;;;7.96;75.49;100459.22;5105975;28;20020;-66
2021/10/25 06:45:52;;;;;;;23.30;8.68;;;;;;;7.96;75.38;100456.66;5105915;28;20030;-66
2021/10/25 06:48:17;;;;;;;14.95;7.53;;;;;;;7.95;75.40;100455.81;5105748;28;20053;-68
2021/10/25 06:50:43;;;;;;;18.90;8.95;;;;;;;8.01;75.52;100467.88;5105697;28;20027;-66
2021/10/25 06:53:09;;;;;;;17.27;7.57;;;;;;;8.11;75.08;100469.66;5105586;28;20024;-66
2021/10/25 06:55:35;;;;;;;23.92;10.02;;;;;;;7.99;75.50;100464.41;5105920;28;20024;-66
2021/10/25 06:58:02;;;;;;;19.55;8.93;;;;;;;8.08;75.33;100472.22;5105764;28;20024;-66
2021/10/25 07:00:28;;;;;;;21.52;8.73;;;;;;;8.03;75.36;100461.00;5105669;28;20475;-67
2021/10/25 07:02:53;;;;;;;20.88;8.48;;;;;;;8.12;75.43;100475.66;5105379;28;20024;-67
2021/10/25 07:05:19;;;;;;;19.15;8.73;;;;;;;8.20;75.19;100476.56;5105497;28;20020;-66
2021/10/25 07:07:45;;;;;;;17.75;8.00;;;;;;;8.21;75.20;100465.34;5105271;28;20099;-67
2021/10/25 07:10:10;;;;;;;18.35;7.32;;;;;;;8.25;75.01;100472.25;5105627;28;20023;-67
2021/10/25 07:12:36;;;;;;;13.30;7.22;;;;;;;8.19;75.24;100475.69;5105637;28;20020;-66
2021/10/25 07:15:03;;;;;;;17.88;8.95;;;;;;;8.17;75.48;100469.66;5105541;28;20516;-67
2021/10/25 08:05:36;;;;;;;15.57;7.73;;;;;;;11.20;72.23;100477.28;5104682;28;20028;-65
2021/10/25 08:10:41;;;;;;;28.60;7.97;;;;;;;11.35;70.76;100481.44;5104572;28;20024;-67
2021/10/25 08:13:15;;;;;;;16.35;7.18;;;;;;;11.21;70.88;100473.81;5119886;28;20035;-67
2021/10/25 08:15:44;;;;;;;11.63;6.18;;;;;;;11.13;71.12;100468.69;5104348;28;20033;-66
2021/10/25 08:20:47;;;;;;;17.00;7.03;;;;;;;11.04;71.08;100461.81;5103874;28;20028;-66
2021/10/25 08:23:13;;;;;;;17.15;6.47;;;;;;;11.06;71.13;100467.88;5103940;28;20024;-66
2021/10/25 08:25:39;;;;;;;15.20;6.43;;;;;;;11.09;70.09;100475.63;5104050;28;20074;-66
2021/10/25 08:28:14;;;;;;;17.90;6.43;;;;;;;10.84;70.51;100472.41;5103916;28;20024;-66
2021/10/25 08:30:41;;;;;;;12.68;6.40;;;;;;;10.72;71.11;100476.81;5104073;28;20020;-66
2021/10/25 08:33:26;;;;;;;16.90;6.32;;;;;;;10.72;71.21;100473.38;5103944;28;20080;-66
2021/10/25 08:41:03;;;;;;;13.65;6.03;;;;;;;10.73;71.37;100477.69;5104179;28;20117;-67
2021/10/25 08:43:28;;;;;;;19.30;6.65;;;;;;;10.71;71.19;100462.13;5103900;28;20028;-66
2021/10/25 08:45:57;;;;;;;15.65;7.05;;;;;;;10.73;71.10;100467.28;5103654;28;20020;-67
2021/10/25 08:48:23;;;;;;;13.88;5.82;;;;;;;10.74;71.01;100459.50;5103950;28;20024;-66
2021/10/25 08:50:49;;;;;;;19.33;7.80;;;;;;;10.74;71.30;100463.81;5103763;28;20020;-66
2021/10/25 08:53:15;;;;;;;14.20;7.68;;;;;;;10.69;71.05;100461.25;5103580;28;20020;-66
2021/10/25 08:55:41;;;;;;;12.57;6.72;;;;;;;10.64;71.13;100463.91;5103497;28;20079;-66
2021/10/25 08:58:07;;;;;;;18.75;7.32;;;;;;;10.64;71.07;100463.91;5103840;28;20020;-66
2021/10/25 09:00:39;;;;;;;12.70;7.85;;;;;;;10.68;70.89;100471.66;5103317;28;20058;-66
2021/10/25 09:03:06;;;;;;;18.08;8.63;;;;;;;10.56;71.19;100468.28;5103320;28;20054;-65
2021/10/25 09:05:32;;;;;;;14.77;7.47;;;;;;;10.55;71.49;100466.56;5103574;28;20016;-65
2021/10/25 09:08:03;;;;;;;19.05;7.80;;;;;;;10.56;71.59;100465.69;5103219;28;20089;-66
2021/10/25 09:10:30;;;;;;;18.55;8.38;;;;;;;10.58;71.29;100466.53;5103352;28;20017;-67
2021/10/25 09:13:07;;;;;;;19.85;8.20;;;;;;;10.53;71.76;100457.91;5103340;28;20024;-67
2021/10/25 09:15:38;;;;;;;16.55;7.95;;;;;;;10.54;71.96;100467.44;5103427;28;20279;-66
2021/10/25 09:18:13;;;;;;;16.80;7.63;;;;;;;10.57;71.83;100459.63;5103418;28;20431;-65
2021/10/25 09:20:47;;;;;;;19.48;7.53;;;;;;;10.61;71.69;100458.72;5085096;28;20286;-67
2021/10/25 09:23:15;;;;;;;24.63;9.27;;;;;;;10.58;72.08;100450.97;5103244;28;20622;-67
2021/10/25 09:25:42;;;;;;;18.27;8.35;;;;;;;10.60;71.85;100454.41;5103435;28;20044;-67
2021/10/25 09:28:18;;;;;;;16.70;8.02;;;;;;;10.57;72.01;100451.84;5103424;28;20020;-66
2021/10/25 09:31:10;;;;;;;15.55;7.00;;;;;;;10.62;71.85;100450.06;5103558;28;20024;-66
2021/10/25 09:33:37;;;;;;;17.55;7.95;;;;;;;10.62;71.49;100442.25;5107444;28;20027;-65
2021/10/25 09:36:09;;;;;;;17.20;8.18;;;;;;;10.63;71.90;100454.41;5107254;28;20036;-66
2021/10/25 09:49:32;;;;;;;16.50;8.10;;;;;;;10.63;71.49;100450.94;5107371;28;20038;-66
2021/10/25 09:51:59;;;;;;;17.13;8.07;;;;;;;10.64;71.41;100450.03;5107261;28;20139;-67
2021/10/25 09:54:26;;;;;;;16.15;7.63;;;;;;;10.66;71.48;100436.19;5106982;28;20028;-66
2021/10/25 09:57:03;;;;;;;15.85;7.68;;;;;;;10.66;71.45;100443.09;5107167;28;20027;-66
2021/10/25 09:59:50;;;;;;;19.05;8.48;;;;;;;10.75;71.43;100429.22;5106884;28;20020;-66
2021/10/25 10:02:17;;;;;;;20.52;9.02;;;;;;;10.77;70.97;100433.50;5107212;28;20024;-67
2021/10/25 10:04:49;;;;;;;13.88;8.73;;;;;;;10.76;71.08;100441.31;5088492;28;20022;-66
2021/10/25 10:07:18;;;;;;;16.50;8.43;;;;;;;10.73;71.11;100436.13;5104476;28;20083;-66
2021/10/25 10:09:48;;;;;;;17.52;7.53;;;;;;;10.74;70.98;100428.34;5106306;28;20039;-67
2021/10/25 10:12:18;;;;;;;20.35;8.38;;;;;;;10.80;70.85;100442.97;5106793;28;20520;-66
2021/10/25 10:14:49;;;;;;;14.65;7.78;;;;;;;10.84;70.63;100430.84;5106542;28;20039;-67
2021/10/25 10:17:59;;;;;;;17.17;8.63;;;;;;;10.82;70.37;100441.25;5106783;28;20020;-66
2021/10/25 10:20:28;;;;;;;16.83;8.38;;;;;;;10.81;70.43;100434.34;5096774;28;20284;-66
2021/10/25 10:22:58;;;;;;;20.23;8.25;;;;;;;10.88;70.59;100435.13;5106345;28;20036;-66
2021/10/25 10:25:29;;;;;;;22.63;8.38;;;;;;;10.90;69.95;100423.88;5106252;28;20044;-68
2021/10/25 10:28:05;;;;;;;16.23;9.53;;;;;;;10.78;70.09;100413.59;5106282;28;20032;-66
2021/10/25 10:30:32;;;;;;;16.48;7.40;;;;;;;10.89;69.96;100414.31;5106265;28;20020;-67
2021/10/25 10:33:01;;;;;;;14.23;7.60;;;;;;;10.88;69.82;100415.22;5106485;28;20031;-67
2021/10/25 10:35:37;;;;;;;16.17;7.93;;;;;;;10.91;69.55;100422.97;5106232;28;20020;-66
2021/10/25 10:38:02;;;;;;;18.23;8.57;;;;;;;10.81;69.47;100429.16;5106000;28;20360;-69
2021/10/25 10:40:36;;;;;;;12.32;7.90;;;;;;;10.75;69.39;100424.84;5106325;28;20056;-67
2021/10/25 10:43:02;;;;;;;15.50;7.63;;;;;;;10.77;69.73;100414.44;5105708;28;20027;-67
2021/10/25 10:45:27;;;;;;;19.02;8.38;;;;;;;10.88;69.53;100417.81;5106051;28;20079;-67
2021/10/25 10:47:58;;;;;;;12.88;7.47;;;;;;;10.90;69.33;100417.78;5105988;28;20431;-67
2021/10/25 10:50:56;;;;;;;18.65;7.55;;;;;;;10.86;69.45;100411.75;5105865;28;20506;-66
2021/10/25 10:53:28;;;;;;;20.40;7.68;;;;;;;10.75;69.59;100408.44;5105316;28;20134;-66
2021/10/25 10:56:03;;;;;;;12.70;7.00;;;;;;;10.74;69.65;100415.34;5105584;28;20035;-66
2021/10/25 10:59:31;;;;;;;18.20;8.02;;;;;;;10.64;69.53;100400.72;5105666;28;20013;-68
2021/10/25 11:01:25;;;;;;;18.08;8.35;;;;;;;10.63;69.79;100410.25;5094517;28;20028;-66
2021/10/25 11:04:03;;;;;;;23.75;8.55;;;;;;;10.58;70.15;100408.56;5105568;28;20035;-66
2021/10/25 11:06:32;;;;;;;15.60;8.63;;;;;;;10.67;70.04;100403.31;5105670;28;20065;-67
2021/10/25 11:08:58;;;;;;;13.73;8.55;;;;;;;10.68;70.21;100404.16;5086924;28;20492;-66
2021/10/25 11:11:24;;;;;;;16.35;7.82;;;;;;;10.66;70.46;100410.22;5105458;28;20024;-67
2021/10/25 11:13:53;;;;;;;16.70;7.38;;;;;;;10.69;70.26;100400.69;5105323;28;20012;-68
2021/10/25 11:18:49;;;;;;;25.13;9.48;;;;;;;10.64;69.79;100388.59;5105247;28;20113;-66
2021/10/25 11:21:20;;;;;;;21.58;8.63;;;;;;;10.71;69.69;100386.81;5105288;28;20047;-67
2021/10/25 11:23:48;;;;;;;19.85;9.50;;;;;;;10.70;70.00;100384.22;5105082;28;20056;-67
2021/10/25 11:26:23;;;;;;;25.38;9.10;;;;;;;10.71;69.95;100378.16;5121020;28;20038;-67
2021/10/25 11:29:03;;;;;;;16.83;8.18;;;;;;;10.70;69.86;100389.44;5105218;28;20016;-67
2021/10/25 11:31:34;;;;;;;18.52;8.82;;;;;;;10.71;70.05;100391.13;5105113;28;20027;-67
2021/10/25 11:34:00;;;;;;;20.63;8.63;;;;;;;10.74;70.23;100393.69;5104862;28;20046;-67
2021/10/25 11:36:29;;;;;;;14.48;7.88;;;;;;;10.86;70.25;100395.34;5120415;28;20016;-68
2021/10/25 11:38:57;;;;;;;21.52;9.52;;;;;;;10.91;70.04;100397.00;5104496;28;20024;-67
2021/10/25 11:41:22;;;;;;;14.93;8.27;;;;;;;10.97;69.90;100388.31;5104800;28;20030;-68
2021/10/25 11:43:48;;;;;;;18.00;8.45;;;;;;;11.08;69.64;100388.19;5104566;28;20024;-67
2021/10/25 11:46:15;;;;;;;18.35;8.50;;;;;;;11.12;69.62;100384.66;5104753;28;20064;-67
2021/10/25 11:48:41;;;;;;;14.13;8.45;;;;;;;11.11;69.79;100385.56;5104777;28;20016;-67
2021/10/25 11:51:09;;;;;;;23.58;9.05;;;;;;;11.13;69.70;100382.94;5104605;28;20481;-67
2021/10/25 11:53:36;;;;;;;21.88;8.73;;;;;;;11.14;69.56;100380.31;5104245;28;20028;-67
2021/10/25 11:56:01;;;;;;;20.85;9.32;;;;;;;11.11;69.96;100376.88;5103936;28;20162;-67
2021/10/25 11:58:27;;;;;;;17.75;8.75;;;;;;;11.23;69.89;100378.50;5104420;28;20048;-67
2021/10/25 12:00:54;;;;;;;14.63;9.27;;;;;;;11.36;69.76;100372.25;5104499;28;20331;-67
2021/10/25 12:03:26;;;;;;;18.50;8.63;;;;;;;11.42;69.40;100367.88;5104208;28;20020;-67
2021/10/25 12:05:54;;;;;;;20.70;9.35;;;;;;;11.46;69.38;100369.53;5104461;28;20084;-67
2021/10/25 12:08:20;;;;;;;15.15;9.15;;;;;;;11.48;69.17;100373.00;5104040;28;20020;-67
2021/10/25 12:10:49;;;;;;;17.38;10.20;;;;;;;11.51;68.57;100378.16;5104127;28;20012;-66
2021/10/25 12:13:15;;;;;;;12.52;7.80;;;;;;;11.36;68.88;100364.47;5103946;28;20024;-66
2021/10/25 12:15:59;;;;;;;21.05;9.90;;;;;;;11.26;69.46;100362.88;5104297;28;20023;-66
2021/10/25 12:18:26;;;;;;;18.85;10.23;;;;;;;11.35;69.20;100370.56;5086913;28;20079;-66
2021/10/25 12:20:52;;;;;;;14.40;9.13;;;;;;;11.31;69.41;100376.66;5104108;28;20043;-66
2021/10/25 12:23:20;;;;;;;20.20;10.52;;;;;;;11.28;69.66;100369.75;5103809;28;20031;-66
2021/10/25 12:26:01;;;;;;;19.88;9.30;;;;;;;11.25;70.04;100362.00;5103918;28;20054;-66
2021/10/25 12:28:27;;;;;;;18.70;8.57;;;;;;;11.26;69.60;100360.28;5103960;28;20130;-66
2021/10/25 12:31:14;;;;;;;18.17;9.27;;;;;;;11.31;69.75;100368.84;5104011;28;20023;-66
2021/10/25 12:33:42;;;;;;;18.40;10.48;;;;;;;11.25;69.89;100366.31;5103483;28;20028;-66
2021/10/25 12:36:15;;;;;;;22.23;10.88;;;;;;;11.17;70.16;100363.00;5085672;28;20016;-66
2021/10/25 12:38:43;;;;;;;19.05;9.43;;;;;;;11.16;70.01;100356.91;5103462;28;20019;-66
2021/10/25 12:41:09;;;;;;;23.60;9.23;;;;;;;11.10;70.30;100357.84;5103655;28;20102;-66
2021/10/25 12:43:40;;;;;;;26.38;12.25;;;;;;;11.15;70.04;100358.66;5103545;28;20024;-67
2021/10/25 12:46:09;;;;;;;16.42;10.20;;;;;;;10.98;70.58;100355.38;5103580;28;20024;-66
2021/10/25 12:48:47;;;;;;;22.60;11.05;;;;;;;10.94;70.56;100361.50;5085141;28;20020;-66
2021/10/25 12:51:13;;;;;;;24.10;11.13;;;;;;;10.88;70.92;100346.81;5103355;28;20027;-66
2021/10/25 12:53:43;;;;;;;25.90;11.00;;;;;;;10.81;71.18;100335.66;5103405;28;20028;-66
2021/10/25 12:56:08;;;;;;;22.17;11.55;;;;;;;10.79;71.00;100337.41;5103501;28;20031;-66
2021/10/25 12:58:34;;;;;;;23.92;11.10;;;;;;;10.79;71.38;100332.22;5103607;28;20016;-66
2021/10/25 13:01:20;;;;;;;27.77;12.70;;;;;;;10.81;71.44;100320.06;5085369;28;20097;-66
2021/10/25 13:03:48;;;;;;;21.38;11.93;;;;;;;10.85;71.26;100321.75;5103031;28;20036;-66
2021/10/25 13:06:13;;;;;;;18.48;11.30;;;;;;;10.75;71.94;100322.75;5103463;28;20032;-66